createdAt,value
2023-05-10T00:00:53.384Z,96.20
2023-05-10T00:03:23.656Z,96.30
2023-05-10T00:05:53.705Z,96.37
2023-05-10T00:08:23.615Z,96.60
2023-05-10T00:10:53.646Z,96.56
2023-05-10T00:13:26.450Z,96.38
2023-05-10T00:15:59.289Z,96.81
2023-05-10T00:18:29.175Z,96.78
2023-05-10T00:20:59.020Z,97.26
2023-05-10T00:23:28.987Z,97.16
2023-05-10T00:25:58.914Z,96.71
2023-05-10T00:28:34.496Z,96.46
2023-05-10T00:31:04.426Z,96.33
2023-05-10T00:33:34.516Z,96.59
2023-05-10T00:36:04.636Z,96.57
2023-05-10T00:38:34.510Z,96.71
2023-05-10T00:41:04.679Z,96.43
2023-05-10T00:43:37.186Z,96.90
2023-05-10T00:46:07.692Z,96.85
2023-05-10T00:48:38.390Z,96.46
2023-05-10T00:51:08.375Z,95.95
2023-05-10T00:53:39.414Z,96.07
2023-05-10T00:56:12.020Z,95.94
2023-05-10T00:58:44.550Z,95.51
2023-05-10T01:01:15.505Z,95.25
2023-05-10T01:03:45.753Z,95.03
2023-05-10T01:06:15.693Z,94.98
2023-05-10T01:08:45.654Z,94.64
2023-05-10T01:11:15.761Z,94.30
2023-05-10T01:13:54.670Z,94.53
2023-05-10T01:16:24.670Z,94.14
2023-05-10T01:18:56.470Z,94.25
2023-05-10T01:21:36.744Z,94.26
2023-05-10T01:24:38.999Z,94.12
2023-05-10T01:27:50.125Z,94.02
2023-05-10T01:30:50.378Z,93.63
2023-05-10T01:33:27.395Z,93.67
2023-05-10T01:36:07.982Z,93.57
2023-05-10T01:38:47.440Z,93.37
2023-05-10T01:41:22.586Z,93.64
2023-05-10T01:43:59.405Z,93.82
2023-05-10T01:46:38.962Z,93.68
2023-05-10T01:49:15.886Z,93.85
2023-05-10T01:51:52.534Z,93.68
2023-05-10T01:54:24.268Z,93.89
2023-05-10T01:57:04.982Z,93.92
2023-05-10T01:59:44.472Z,93.32
2023-05-10T02:02:16.141Z,93.32
2023-05-10T02:04:50.328Z,93.36
2023-05-10T02:07:20.624Z,93.71
2023-05-10T02:09:53.024Z,93.94
2023-05-10T02:12:24.395Z,94.34
2023-05-10T02:14:56.699Z,93.98
2023-05-10T02:17:28.546Z,93.60
2023-05-10T02:20:03.079Z,94.15
2023-05-10T02:22:33.512Z,94.37
2023-05-10T02:25:05.354Z,94.27
2023-05-10T02:27:35.957Z,94.29
2023-05-10T02:30:06.471Z,94.42
2023-05-10T02:32:38.336Z,94.17
2023-05-10T02:35:13.627Z,94.22
2023-05-10T02:37:44.244Z,94.30
2023-05-10T02:40:15.832Z,94.45
2023-05-10T02:42:47.824Z,94.27
2023-05-10T02:45:22.207Z,94.26
2023-05-10T02:47:52.430Z,94.39
2023-05-10T02:50:26.281Z,94.25
2023-05-10T02:53:00.321Z,94.76
2023-05-10T02:55:35.756Z,94.69
2023-05-10T02:58:07.938Z,95.00
2023-05-10T03:00:38.024Z,95.09
2023-05-10T03:03:07.980Z,95.55
2023-05-10T03:05:40.944Z,95.80
2023-05-10T03:08:11.348Z,95.98
2023-05-10T03:11:04.006Z,96.93
2023-05-10T03:13:40.285Z,97.13
2023-05-10T03:16:14.109Z,97.14
2023-05-10T03:18:48.490Z,97.08
2023-05-10T03:21:23.082Z,97.12
2023-05-10T03:23:59.481Z,96.87
2023-05-10T03:26:31.328Z,96.86
2023-05-10T03:29:02.628Z,96.45
2023-05-10T03:31:32.713Z,96.56
2023-05-10T03:34:02.765Z,96.76
2023-05-10T03:36:35.329Z,97.64
2023-05-10T03:39:06.215Z,97.61
2023-05-10T03:41:36.166Z,97.72
2023-05-10T03:44:06.036Z,98.08
2023-05-10T03:46:35.924Z,98.19
2023-05-10T03:49:06.247Z,98.24
2023-05-10T03:51:38.821Z,98.52
2023-05-10T03:54:09.113Z,98.47
2023-05-10T03:56:39.104Z,98.26
2023-05-10T03:59:10.029Z,97.91
2023-05-10T04:01:39.989Z,97.66
2023-05-10T04:04:09.979Z,97.64
2023-05-10T04:06:42.649Z,98.00
2023-05-10T04:09:12.710Z,98.02
2023-05-10T04:11:43.069Z,97.69
2023-05-10T04:14:12.967Z,98.14
2023-05-10T04:16:42.952Z,98.47
2023-05-10T04:19:12.806Z,98.52
2023-05-10T04:21:45.301Z,98.90
2023-05-10T04:24:15.161Z,99.32
2023-05-10T04:26:45.037Z,99.84
2023-05-10T04:29:15.063Z,100.00
2023-05-10T04:31:44.977Z,99.87
2023-05-10T04:34:14.821Z,100.00
2023-05-10T04:36:47.321Z,100.00
2023-05-10T04:39:17.704Z,100.00
2023-05-10T04:41:47.689Z,100.00
2023-05-10T04:44:17.737Z,100.00
2023-05-10T04:46:47.621Z,100.00
2023-05-10T04:49:17.990Z,100.00
2023-05-10T04:51:50.544Z,100.00
2023-05-10T04:54:20.455Z,100.00
2023-05-10T04:56:50.506Z,100.00
2023-05-10T04:59:20.405Z,100.00
2023-05-10T05:01:50.378Z,100.00
2023-05-10T05:04:20.292Z,100.00
2023-05-10T05:06:53.986Z,100.00
2023-05-10T05:09:24.045Z,100.00
2023-05-10T05:11:53.922Z,100.00
2023-05-10T05:14:26.189Z,100.00
2023-05-10T05:16:57.076Z,100.00
2023-05-10T05:19:27.025Z,100.00
2023-05-10T05:21:59.573Z,100.00
2023-05-10T05:24:29.449Z,100.00
2023-05-10T05:26:59.286Z,100.00
2023-05-10T05:29:29.099Z,100.00
2023-05-10T05:31:59.039Z,100.00
2023-05-10T05:34:29.068Z,100.00
2023-05-10T05:37:01.563Z,100.00
2023-05-10T05:39:31.620Z,100.00
2023-05-10T05:42:01.487Z,100.00
2023-05-10T05:44:31.656Z,100.00
2023-05-10T05:47:01.541Z,100.00
2023-05-10T05:49:31.389Z,100.00
2023-05-10T05:52:06.193Z,100.00
2023-05-10T05:54:36.371Z,100.00
2023-05-10T05:57:06.470Z,100.00
2023-05-10T05:59:36.453Z,100.00
2023-05-10T06:02:06.322Z,100.00
2023-05-10T06:04:38.839Z,100.00
2023-05-10T06:07:11.675Z,100.00
2023-05-10T06:09:41.564Z,100.00
2023-05-10T06:12:12.849Z,100.00
2023-05-10T06:14:42.856Z,100.00
2023-05-10T06:17:12.717Z,100.00
2023-05-10T06:19:42.605Z,100.00
2023-05-10T06:22:15.060Z,100.00
2023-05-10T06:24:44.950Z,100.00
2023-05-10T06:27:14.840Z,100.00
2023-05-10T06:29:44.878Z,100.00
2023-05-10T06:32:14.828Z,100.00
2023-05-10T06:34:45.828Z,100.00
2023-05-10T06:37:18.253Z,100.00
2023-05-10T06:39:48.143Z,100.00
2023-05-10T06:42:18.269Z,100.00
2023-05-10T06:44:48.070Z,100.00
2023-05-10T06:47:21.280Z,100.00
2023-05-10T06:49:51.122Z,100.00
2023-05-10T06:52:24.531Z,100.00
2023-05-10T06:54:54.501Z,100.00
2023-05-10T06:57:31.848Z,100.00
2023-05-10T07:00:06.139Z,100.00
2023-05-10T07:02:36.279Z,100.00
2023-05-10T07:05:06.397Z,100.00
2023-05-10T07:07:38.977Z,100.00
2023-05-10T07:10:10.481Z,100.00
2023-05-10T07:12:42.749Z,100.00
2023-05-10T07:15:13.638Z,100.00
2023-05-10T07:17:45.660Z,100.00
2023-05-10T07:20:18.651Z,100.00
2023-05-10T07:22:51.336Z,100.00
2023-05-10T07:25:21.357Z,100.00
2023-05-10T07:27:52.224Z,100.00
2023-05-10T07:30:22.371Z,100.00
2023-05-10T07:32:52.429Z,100.00
2023-05-10T07:35:25.052Z,100.00
2023-05-10T07:37:57.546Z,100.00
2023-05-10T07:40:28.156Z,100.00
2023-05-10T07:42:58.120Z,100.00
2023-05-10T07:45:31.290Z,100.00
2023-05-10T07:48:01.716Z,100.00
2023-05-10T07:50:31.965Z,100.00
2023-05-10T07:53:04.586Z,100.00
2023-05-10T07:55:35.483Z,100.00
2023-05-10T07:58:05.762Z,100.00
2023-05-10T08:00:37.033Z,100.00
2023-05-10T08:03:07.136Z,100.00
2023-05-10T08:05:37.453Z,100.00
2023-05-10T08:08:11.979Z,100.00
2023-05-10T08:10:42.053Z,100.00
2023-05-10T08:13:11.956Z,99.75
2023-05-10T08:15:42.037Z,99.26
2023-05-10T08:18:12.050Z,99.08
2023-05-10T08:20:42.031Z,98.42
2023-05-10T08:23:16.710Z,97.99
2023-05-10T08:25:46.603Z,98.13
2023-05-10T08:28:16.450Z,97.91
2023-05-10T08:30:46.370Z,97.27
2023-05-10T08:33:16.540Z,97.17
2023-05-10T08:35:48.213Z,96.10
2023-05-10T08:38:21.944Z,95.18
2023-05-10T08:40:57.684Z,94.78
2023-05-10T08:43:31.140Z,94.44
2023-05-10T08:46:05.519Z,93.91
2023-05-10T08:48:41.403Z,93.63
2023-05-10T08:51:13.516Z,93.30
2023-05-10T08:53:46.400Z,92.46
2023-05-10T08:56:16.894Z,91.70
2023-05-10T08:58:47.218Z,91.61
2023-05-10T09:01:21.537Z,90.83
2023-05-10T09:03:52.486Z,89.96
2023-05-10T09:06:22.589Z,90.51
2023-05-10T09:08:56.386Z,89.38
2023-05-10T09:11:26.799Z,89.98
2023-05-10T09:13:57.402Z,88.17
2023-05-10T09:16:28.313Z,87.71
2023-05-10T09:18:58.265Z,88.07
2023-05-10T09:21:28.945Z,87.98
2023-05-10T09:24:06.691Z,87.36
2023-05-10T09:26:36.821Z,88.43
2023-05-10T09:29:09.735Z,88.41
2023-05-10T09:31:52.897Z,87.30
2023-05-10T09:34:24.438Z,87.49
2023-05-10T09:36:59.374Z,86.05
2023-05-10T09:39:41.169Z,85.61
2023-05-10T09:42:12.826Z,86.70
2023-05-10T09:44:44.580Z,86.12
2023-05-10T09:47:23.686Z,86.28
2023-05-10T09:49:54.278Z,86.13
2023-05-10T09:52:24.300Z,85.42
2023-05-10T09:54:59.538Z,82.53
2023-05-10T09:57:29.881Z,83.46
2023-05-10T09:59:59.816Z,85.08
2023-05-10T10:02:33.530Z,84.67
2023-05-10T10:05:05.413Z,84.50
2023-05-10T10:07:38.099Z,84.77
2023-05-10T10:10:14.153Z,83.85
2023-05-10T10:12:45.785Z,84.73
2023-05-10T10:15:16.911Z,84.92
2023-05-10T10:17:47.844Z,84.47
2023-05-10T10:20:18.690Z,84.89
2023-05-10T10:22:48.875Z,84.69
2023-05-10T10:25:24.401Z,83.53
2023-05-10T10:28:13.224Z,84.21
2023-05-10T10:30:46.505Z,84.67
2023-05-10T10:33:40.606Z,83.49
2023-05-10T10:36:11.734Z,84.14
2023-05-10T10:39:00.808Z,84.24
2023-05-10T10:41:45.630Z,83.80
2023-05-10T10:44:30.644Z,84.30
2023-05-10T10:47:09.870Z,84.73
2023-05-10T10:49:47.391Z,84.74
2023-05-10T10:52:27.992Z,85.04
2023-05-10T10:55:03.029Z,84.67
2023-05-10T10:57:38.368Z,84.68
2023-05-10T11:00:27.719Z,84.51
2023-05-10T11:03:00.517Z,84.74
2023-05-10T11:05:44.577Z,83.54
2023-05-10T11:08:20.199Z,84.15
2023-05-10T11:10:58.171Z,84.12
2023-05-10T11:13:35.273Z,85.17
2023-05-10T11:16:18.550Z,84.38
2023-05-10T11:19:07.040Z,84.53
2023-05-10T11:21:37.979Z,85.24
2023-05-10T11:24:17.987Z,84.06
2023-05-10T11:26:48.135Z,84.14
2023-05-10T11:29:21.213Z,83.39
2023-05-10T11:31:52.472Z,83.60
2023-05-10T11:34:31.546Z,83.17
2023-05-10T11:37:02.166Z,83.49
2023-05-10T11:39:33.239Z,83.12
2023-05-10T11:42:03.946Z,82.09
2023-05-10T11:44:37.433Z,81.99
2023-05-10T11:47:09.156Z,82.06
2023-05-10T11:49:39.124Z,81.36
2023-05-10T11:52:10.403Z,80.47
2023-05-10T11:54:40.436Z,80.09
2023-05-10T11:57:10.318Z,80.25
2023-05-10T11:59:43.922Z,79.48
2023-05-10T12:02:14.556Z,80.16
2023-05-10T12:04:45.597Z,79.65
2023-05-10T12:07:15.604Z,79.55
2023-05-10T12:09:47.409Z,79.69
2023-05-10T12:12:20.921Z,79.15
2023-05-10T12:14:55.817Z,78.66
2023-05-10T12:17:25.718Z,79.61
2023-05-10T12:19:55.965Z,79.92
2023-05-10T12:22:25.924Z,78.92
2023-05-10T12:24:55.938Z,79.88
2023-05-10T12:27:25.774Z,78.93
2023-05-10T12:29:58.790Z,78.70
2023-05-10T12:32:42.029Z,76.96
2023-05-10T12:35:12.631Z,78.18
2023-05-10T12:37:43.060Z,77.69
2023-05-10T12:40:15.335Z,77.40
2023-05-10T12:42:46.089Z,75.00
2023-05-10T12:45:18.644Z,74.44
2023-05-10T12:47:49.383Z,74.76
2023-05-10T12:50:19.336Z,74.08
2023-05-10T12:52:49.353Z,74.19
2023-05-10T12:55:19.306Z,73.17
2023-05-10T12:57:49.119Z,71.05
2023-05-10T13:00:22.646Z,71.27
2023-05-10T13:02:52.588Z,71.97
2023-05-10T13:05:22.722Z,70.91
2023-05-10T13:07:52.565Z,72.00
2023-05-10T13:10:23.770Z,70.68
2023-05-10T13:12:53.855Z,70.09
2023-05-10T13:15:26.705Z,68.46
2023-05-10T13:17:58.985Z,67.86
2023-05-10T13:20:29.551Z,69.30
2023-05-10T13:22:59.455Z,69.63
2023-05-10T13:25:29.308Z,69.43
2023-05-10T13:27:59.457Z,68.36
2023-05-10T13:30:32.776Z,67.18
2023-05-10T13:33:02.811Z,67.94
2023-05-10T13:35:32.942Z,67.42
2023-05-10T13:38:03.244Z,68.01
2023-05-10T13:40:33.184Z,67.85
2023-05-10T13:43:04.516Z,68.38
2023-05-10T13:45:37.218Z,67.31
2023-05-10T13:48:08.039Z,67.79
2023-05-10T13:50:38.098Z,68.34
2023-05-10T13:53:08.024Z,68.05
2023-05-10T13:55:38.006Z,65.94
2023-05-10T13:58:08.146Z,66.29
2023-05-10T14:00:40.896Z,64.98
2023-05-10T14:03:12.633Z,63.56
2023-05-10T14:05:46.162Z,64.22
2023-05-10T14:08:16.967Z,64.32
2023-05-10T14:10:46.868Z,63.09
2023-05-10T14:13:17.065Z,61.03
2023-05-10T14:15:49.637Z,60.34
2023-05-10T14:18:19.528Z,61.96
2023-05-10T14:20:49.405Z,62.90
2023-05-10T14:23:20.778Z,62.59
2023-05-10T14:25:50.875Z,61.93
2023-05-10T14:28:21.925Z,61.67
2023-05-10T14:30:54.660Z,61.32
2023-05-10T14:33:24.788Z,61.23
2023-05-10T14:35:56.049Z,61.18
2023-05-10T14:38:26.080Z,61.14
2023-05-10T14:40:56.032Z,59.35
2023-05-10T14:43:26.173Z,59.00
2023-05-10T14:45:58.703Z,57.99
2023-05-10T14:48:28.637Z,59.33
2023-05-10T14:50:58.667Z,58.92
2023-05-10T14:53:28.677Z,56.04
2023-05-10T14:55:58.627Z,58.29
2023-05-10T14:58:28.748Z,58.77
2023-05-10T15:01:01.310Z,58.38
2023-05-10T15:03:31.864Z,59.13
2023-05-10T15:06:02.116Z,58.95
2023-05-10T15:08:32.060Z,59.41
2023-05-10T15:11:02.162Z,59.38
2023-05-10T15:13:32.052Z,59.47
2023-05-10T15:16:04.925Z,57.72
2023-05-10T15:18:35.152Z,59.03
2023-05-10T15:21:10.273Z,58.84
2023-05-10T15:23:40.219Z,58.90
2023-05-10T15:26:10.163Z,59.30
2023-05-10T15:28:40.459Z,59.47
2023-05-10T15:31:13.193Z,60.16
2023-05-10T15:33:43.106Z,60.34
2023-05-10T15:36:13.137Z,60.76
2023-05-10T15:38:43.024Z,60.51
2023-05-10T15:41:13.002Z,60.48
2023-05-10T15:43:42.925Z,60.72
2023-05-10T15:46:15.490Z,60.74
2023-05-10T15:48:45.404Z,60.22
2023-05-10T15:51:15.846Z,60.17
2023-05-10T15:54:00.419Z,60.26
2023-05-10T15:56:36.978Z,61.69
2023-05-10T15:59:08.884Z,63.16
2023-05-10T16:01:41.651Z,64.33
2023-05-10T16:04:11.686Z,64.49
2023-05-10T16:06:42.892Z,65.29
2023-05-10T16:09:13.392Z,66.01
2023-05-10T16:11:43.331Z,66.57
2023-05-10T16:14:13.186Z,66.98
2023-05-10T16:16:46.309Z,67.20
2023-05-10T16:19:17.914Z,67.63
2023-05-10T16:21:48.077Z,68.40
2023-05-10T16:24:18.038Z,67.96
2023-05-10T16:26:48.411Z,68.51
2023-05-10T16:29:18.385Z,69.10
2023-05-10T16:31:50.867Z,69.30
2023-05-10T16:34:24.421Z,70.17
2023-05-10T16:36:54.345Z,69.82
2023-05-10T16:39:24.380Z,70.09
2023-05-10T16:41:56.628Z,70.66
2023-05-10T16:44:28.697Z,71.33
2023-05-10T16:47:01.178Z,71.46
2023-05-10T16:49:31.153Z,72.12
2023-05-10T16:52:01.668Z,72.20
2023-05-10T16:54:31.805Z,72.14
2023-05-10T16:57:02.346Z,72.57
2023-05-10T16:59:32.220Z,72.65
2023-05-10T17:02:04.754Z,73.03
2023-05-10T17:04:34.710Z,72.90
2023-05-10T17:07:09.625Z,73.11
2023-05-10T17:09:39.507Z,73.69
2023-05-10T17:12:09.414Z,73.44
2023-05-10T17:14:40.560Z,74.15
2023-05-10T17:17:13.002Z,73.77
2023-05-10T17:19:45.076Z,74.26
2023-05-10T17:22:15.606Z,74.44
2023-05-10T17:24:46.742Z,74.46
2023-05-10T17:27:16.777Z,74.82
2023-05-10T17:29:46.852Z,74.97
2023-05-10T17:32:19.269Z,75.18
2023-05-10T17:34:49.166Z,75.84
2023-05-10T17:37:19.532Z,76.19
2023-05-10T17:39:49.426Z,75.74
2023-05-10T17:42:21.939Z,76.24
2023-05-10T17:44:51.830Z,75.87
2023-05-10T17:47:24.456Z,75.86
2023-05-10T17:49:54.619Z,75.91
2023-05-10T17:52:24.364Z,76.04
2023-05-10T17:54:54.279Z,76.27
2023-05-10T17:57:24.874Z,76.27
2023-05-10T17:59:54.937Z,76.37
2023-05-10T18:02:27.551Z,76.13
2023-05-10T18:05:01.871Z,76.56
2023-05-10T18:07:32.251Z,77.45
2023-05-10T18:10:05.177Z,78.35
2023-05-10T18:12:38.137Z,78.87
2023-05-10T18:15:09.393Z,78.95
2023-05-10T18:17:48.083Z,79.13
2023-05-10T18:20:18.114Z,78.86
2023-05-10T18:22:47.944Z,78.52
2023-05-10T18:25:20.381Z,78.22
2023-05-10T18:27:50.575Z,78.44
2023-05-10T18:30:22.588Z,78.61
2023-05-10T18:32:55.310Z,78.71
2023-05-10T18:35:26.813Z,78.73
2023-05-10T18:37:56.746Z,78.67
2023-05-10T18:40:26.782Z,78.71
2023-05-10T18:42:58.478Z,78.56
2023-05-10T18:45:28.406Z,78.84
2023-05-10T18:48:04.017Z,78.70
2023-05-10T18:50:35.179Z,79.01
2023-05-10T18:53:09.641Z,79.22
2023-05-10T18:55:46.708Z,79.10
2023-05-10T18:58:19.093Z,79.86
2023-05-10T19:00:49.114Z,79.33
2023-05-10T19:03:21.870Z,79.33
2023-05-10T19:05:52.199Z,79.42
2023-05-10T19:08:22.264Z,79.64
2023-05-10T19:10:56.414Z,79.59
2023-05-10T19:13:29.184Z,80.09
2023-05-10T19:16:14.029Z,79.63
2023-05-10T19:18:51.559Z,79.84
2023-05-10T19:21:23.111Z,79.87
2023-05-10T19:23:57.272Z,80.28
2023-05-10T19:26:30.563Z,80.69
2023-05-10T19:29:06.010Z,80.30
2023-05-10T19:31:36.462Z,80.47
2023-05-10T19:34:10.560Z,80.66
2023-05-10T19:36:40.558Z,80.81
2023-05-10T19:39:10.685Z,81.14
2023-05-10T19:41:51.930Z,81.82
2023-05-10T19:44:23.038Z,81.97
2023-05-10T19:46:56.793Z,81.70
2023-05-10T19:49:30.460Z,81.63
2023-05-10T19:52:00.588Z,81.70
2023-05-10T19:54:30.478Z,81.56
2023-05-10T19:57:00.344Z,81.65
2023-05-10T19:59:30.212Z,81.97
2023-05-10T20:02:01.499Z,81.92
2023-05-10T20:04:41.334Z,81.44
2023-05-10T20:07:11.587Z,82.06
2023-05-10T20:09:41.538Z,81.83
2023-05-10T20:12:11.514Z,82.05
2023-05-10T20:14:44.572Z,82.21
2023-05-10T20:17:16.920Z,82.58
2023-05-10T20:19:50.436Z,82.45
2023-05-10T20:22:20.455Z,82.66
2023-05-10T20:24:50.415Z,82.87
2023-05-10T20:27:21.319Z,82.69
2023-05-10T20:29:51.115Z,82.42
2023-05-10T20:32:21.401Z,82.37
2023-05-10T20:34:53.894Z,82.47
2023-05-10T20:37:23.949Z,82.94
2023-05-10T20:39:53.823Z,82.83
2023-05-10T20:42:24.254Z,82.50
2023-05-10T20:44:54.173Z,82.50
2023-05-10T20:47:24.734Z,82.39
2023-05-10T20:49:57.266Z,82.36
2023-05-10T20:52:27.187Z,82.24
2023-05-10T20:54:57.058Z,82.40
2023-05-10T20:57:27.489Z,82.22
2023-05-10T20:59:57.814Z,82.37
2023-05-10T21:02:30.950Z,82.03
2023-05-10T21:05:03.879Z,82.49
2023-05-10T21:07:33.983Z,82.34
2023-05-10T21:10:03.951Z,82.58
2023-05-10T21:12:33.971Z,82.56
2023-05-10T21:15:04.006Z,82.96
2023-05-10T21:17:33.958Z,83.43
2023-05-10T21:20:06.703Z,83.12
2023-05-10T21:22:37.048Z,83.28
2023-05-10T21:25:07.540Z,83.39
2023-05-10T21:27:37.627Z,83.16
2023-05-10T21:30:08.936Z,83.85
2023-05-10T21:32:39.257Z,83.90
2023-05-10T21:35:12.482Z,84.39
2023-05-10T21:37:42.938Z,84.34
2023-05-10T21:40:14.650Z,84.66
2023-05-10T21:42:49.611Z,84.75
2023-05-10T21:45:19.711Z,85.05
2023-05-10T21:47:49.896Z,85.17
2023-05-10T21:50:23.114Z,85.34
2023-05-10T21:52:55.815Z,85.01
2023-05-10T21:55:26.145Z,85.50
2023-05-10T21:57:58.609Z,85.67
2023-05-10T22:00:28.615Z,85.58
2023-05-10T22:03:01.333Z,86.28
2023-05-10T22:05:34.007Z,86.19
2023-05-10T22:08:04.036Z,86.33
2023-05-10T22:10:35.333Z,86.32
2023-05-10T22:13:08.299Z,86.29
2023-05-10T22:15:38.342Z,86.23
2023-05-10T22:18:16.740Z,86.61
2023-05-10T22:20:50.397Z,86.59
2023-05-10T22:23:26.339Z,86.44
2023-05-10T22:25:56.158Z,86.74
2023-05-10T22:28:26.234Z,86.80
2023-05-10T22:30:56.368Z,87.58
2023-05-10T22:33:26.507Z,88.68
2023-05-10T22:36:00.402Z,88.78
2023-05-10T22:38:30.376Z,89.23
2023-05-10T22:41:05.916Z,89.65
2023-05-10T22:43:36.877Z,88.90
2023-05-10T22:46:07.210Z,89.30
2023-05-10T22:48:38.629Z,88.88
2023-05-10T22:51:11.211Z,88.83
2023-05-10T22:53:41.296Z,88.84
2023-05-10T22:56:15.817Z,88.41
2023-05-10T22:58:48.736Z,88.67
2023-05-10T23:01:19.402Z,88.79
2023-05-10T23:03:49.437Z,89.57
2023-05-10T23:06:21.958Z,89.75
2023-05-10T23:08:54.472Z,90.17
2023-05-10T23:11:27.140Z,90.32
2023-05-10T23:13:59.659Z,90.04
2023-05-10T23:16:29.822Z,90.17
2023-05-10T23:19:03.047Z,90.19
2023-05-10T23:21:39.077Z,90.08
2023-05-10T23:24:16.824Z,90.41
2023-05-10T23:26:47.557Z,90.14
2023-05-10T23:29:17.507Z,90.48
2023-05-10T23:31:48.988Z,90.15
2023-05-10T23:34:26.163Z,89.79
2023-05-10T23:37:04.004Z,90.08
2023-05-10T23:39:35.022Z,89.97
2023-05-10T23:42:06.249Z,90.27
2023-05-10T23:44:38.920Z,90.28
2023-05-10T23:47:19.044Z,89.70
2023-05-10T23:49:48.988Z,89.64
2023-05-10T23:52:23.019Z,90.16
2023-05-10T23:54:53.912Z,90.17
2023-05-10T23:57:28.080Z,90.19
